sensor_id;sensor_type;location;lat;lon;timestamp;pressure;altitude;pressure_sealevel;temperature;humidity
45369;BME280;51342;55.250;37.668;2023-04-27T00:01:51;98893.75;;;6.02;75.34
45369;BME280;51342;55.250;37.668;2023-04-27T00:04:23;98894.44;;;5.99;75.62
45369;BME280;51342;55.250;37.668;2023-04-27T00:06:55;98900.28;;;5.97;75.31
45369;BME280;51342;55.250;37.668;2023-04-27T00:09:26;98901.84;;;5.95;75.34
45369;BME280;51342;55.250;37.668;2023-04-27T00:11:57;98895.75;;;5.93;75.36
45369;BME280;51342;55.250;37.668;2023-04-27T00:14:29;98900.09;;;5.94;75.32
45369;BME280;51342;55.250;37.668;2023-04-27T00:17:00;98902.56;;;5.92;75.02
45369;BME280;51342;55.250;37.668;2023-04-27T00:19:31;98897.09;;;5.88;74.95
45369;BME280;51342;55.250;37.668;2023-04-27T00:22:03;98903.91;;;5.87;74.95
45369;BME280;51342;55.250;37.668;2023-04-27T00:24:34;98906.41;;;5.85;75.03
45369;BME280;51342;55.250;37.668;2023-04-27T00:27:06;98898.69;;;5.85;75.13
45369;BME280;51342;55.250;37.668;2023-04-27T00:29:41;98905.00;;;5.77;74.65
45369;BME280;51342;55.250;37.668;2023-04-27T00:32:13;98905.81;;;5.76;74.90
45369;BME280;51342;55.250;37.668;2023-04-27T00:34:44;98907.28;;;5.73;74.98
45369;BME280;51342;55.250;37.668;2023-04-27T00:37:17;98908.97;;;5.72;75.00
45369;BME280;51342;55.250;37.668;2023-04-27T00:39:50;98900.38;;;5.72;74.83
45369;BME280;51342;55.250;37.668;2023-04-27T00:42:22;98904.84;;;5.74;74.92
45369;BME280;51342;55.250;37.668;2023-04-27T00:44:58;98895.06;;;5.69;74.69
45369;BME280;51342;55.250;37.668;2023-04-27T00:47:31;98900.00;;;5.66;74.63
45369;BME280;51342;55.250;37.668;2023-04-27T00:50:02;98898.22;;;5.65;74.76
45369;BME280;51342;55.250;37.668;2023-04-27T00:52:36;98897.13;;;5.61;74.81
45369;BME280;51342;55.250;37.668;2023-04-27T00:55:08;98896.75;;;5.55;75.17
45369;BME280;51342;55.250;37.668;2023-04-27T00:57:39;98901.69;;;5.52;75.33
45369;BME280;51342;55.250;37.668;2023-04-27T01:00:11;98908.28;;;5.48;75.58
45369;BME280;51342;55.250;37.668;2023-04-27T01:02:43;98908.28;;;5.48;75.26
45369;BME280;51342;55.250;37.668;2023-04-27T01:05:14;98901.00;;;5.41;75.25
45369;BME280;51342;55.250;37.668;2023-04-27T01:07:46;98916.41;;;5.41;74.96
45369;BME280;51342;55.250;37.668;2023-04-27T01:10:18;98922.41;;;5.42;74.86
45369;BME280;51342;55.250;37.668;2023-04-27T01:12:49;98916.47;;;5.43;74.76
45369;BME280;51342;55.250;37.668;2023-04-27T01:15:20;98912.16;;;5.42;74.90
45369;BME280;51342;55.250;37.668;2023-04-27T01:17:58;98909.88;;;5.33;74.55
45369;BME280;51342;55.250;37.668;2023-04-27T01:20:32;98913.34;;;5.34;74.90
45369;BME280;51342;55.250;37.668;2023-04-27T01:27:04;98907.59;;;5.24;75.24
45369;BME280;51342;55.250;37.668;2023-04-27T01:29:36;98913.63;;;5.25;75.43
45369;BME280;51342;55.250;37.668;2023-04-27T01:32:07;98912.03;;;5.27;75.35
45369;BME280;51342;55.250;37.668;2023-04-27T01:34:39;98911.94;;;5.25;75.38
45369;BME280;51342;55.250;37.668;2023-04-27T01:37:10;98904.81;;;5.21;75.39
45369;BME280;51342;55.250;37.668;2023-04-27T01:39:41;98913.53;;;5.23;75.36
45369;BME280;51342;55.250;37.668;2023-04-27T01:42:12;98910.56;;;5.17;75.25
45369;BME280;51342;55.250;37.668;2023-04-27T01:44:44;98907.69;;;5.13;75.34
45369;BME280;51342;55.250;37.668;2023-04-27T01:47:15;98910.94;;;5.10;75.68
45369;BME280;51342;55.250;37.668;2023-04-27T01:49:47;98921.88;;;5.08;75.54
45369;BME280;51342;55.250;37.668;2023-04-27T01:52:18;98911.53;;;5.06;75.49
45369;BME280;51342;55.250;37.668;2023-04-27T01:54:49;98913.00;;;5.02;75.57
45369;BME280;51342;55.250;37.668;2023-04-27T01:57:21;98918.03;;;5.01;75.47
45369;BME280;51342;55.250;37.668;2023-04-27T01:59:52;98916.03;;;4.97;75.64
45369;BME280;51342;55.250;37.668;2023-04-27T02:02:24;98924.31;;;4.93;75.45
45369;BME280;51342;55.250;37.668;2023-04-27T02:04:55;98916.63;;;4.93;75.38
45369;BME280;51342;55.250;37.668;2023-04-27T02:07:26;98920.75;;;4.91;75.43
45369;BME280;51342;55.250;37.668;2023-04-27T02:09:58;98930.94;;;4.89;75.68
45369;BME280;51342;55.250;37.668;2023-04-27T02:12:29;98929.16;;;4.88;75.53
45369;BME280;51342;55.250;37.668;2023-04-27T02:15:00;98921.34;;;4.87;75.77
45369;BME280;51342;55.250;37.668;2023-04-27T02:17:34;98924.50;;;4.83;75.55
45369;BME280;51342;55.250;37.668;2023-04-27T02:20:06;98928.72;;;4.82;75.72
45369;BME280;51342;55.250;37.668;2023-04-27T02:22:41;98925.06;;;4.78;75.62
45369;BME280;51342;55.250;37.668;2023-04-27T02:25:16;98925.16;;;4.80;76.01
45369;BME280;51342;55.250;37.668;2023-04-27T02:27:47;98927.06;;;4.83;76.27
45369;BME280;51342;55.250;37.668;2023-04-27T02:30:18;98931.50;;;4.85;76.37
45369;BME280;51342;55.250;37.668;2023-04-27T02:32:50;98932.59;;;4.89;76.23
45369;BME280;51342;55.250;37.668;2023-04-27T02:35:21;98933.59;;;4.91;76.39
45369;BME280;51342;55.250;37.668;2023-04-27T02:37:53;98944.81;;;4.93;76.38
45369;BME280;51342;55.250;37.668;2023-04-27T02:40:24;98942.47;;;4.96;76.16
45369;BME280;51342;55.250;37.668;2023-04-27T02:42:56;98939.91;;;4.96;76.35
45369;BME280;51342;55.250;37.668;2023-04-27T02:45:27;98950.47;;;5.00;76.52
45369;BME280;51342;55.250;37.668;2023-04-27T02:47:59;98940.41;;;5.03;76.30
45369;BME280;51342;55.250;37.668;2023-04-27T02:50:31;98948.31;;;5.07;76.57
45369;BME280;51342;55.250;37.668;2023-04-27T02:53:02;98952.97;;;5.12;76.65
45369;BME280;51342;55.250;37.668;2023-04-27T02:55:33;98957.69;;;5.19;76.95
45369;BME280;51342;55.250;37.668;2023-04-27T02:58:05;98954.47;;;5.22;77.13
45369;BME280;51342;55.250;37.668;2023-04-27T03:00:37;98951.50;;;5.29;77.31
45369;BME280;51342;55.250;37.668;2023-04-27T03:03:11;98949.66;;;5.40;77.43
45369;BME280;51342;55.250;37.668;2023-04-27T03:05:42;98954.19;;;5.57;77.36
45369;BME280;51342;55.250;37.668;2023-04-27T03:08:14;98957.06;;;5.75;77.76
45369;BME280;51342;55.250;37.668;2023-04-27T03:10:46;98957.56;;;5.96;77.53
45369;BME280;51342;55.250;37.668;2023-04-27T03:13:17;98963.44;;;6.21;77.68
45369;BME280;51342;55.250;37.668;2023-04-27T03:15:48;98969.41;;;6.48;77.42
45369;BME280;51342;55.250;37.668;2023-04-27T03:18:20;98972.06;;;6.78;76.97
45369;BME280;51342;55.250;37.668;2023-04-27T03:20:51;98980.53;;;7.05;76.69
45369;BME280;51342;55.250;37.668;2023-04-27T03:23:23;98977.00;;;7.32;76.44
45369;BME280;51342;55.250;37.668;2023-04-27T03:25:56;98978.41;;;7.57;76.32
45369;BME280;51342;55.250;37.668;2023-04-27T03:28:28;98975.91;;;7.73;75.97
45369;BME280;51342;55.250;37.668;2023-04-27T03:30:59;98973.56;;;7.92;75.74
45369;BME280;51342;55.250;37.668;2023-04-27T03:33:32;98980.88;;;8.16;75.81
45369;BME280;51342;55.250;37.668;2023-04-27T03:36:04;98984.19;;;8.44;75.75
45369;BME280;51342;55.250;37.668;2023-04-27T03:38:37;98982.13;;;8.70;75.84
45369;BME280;51342;55.250;37.668;2023-04-27T03:41:09;98981.56;;;8.92;75.43
45369;BME280;51342;55.250;37.668;2023-04-27T03:43:40;98982.88;;;9.18;75.84
45369;BME280;51342;55.250;37.668;2023-04-27T03:46:11;98985.09;;;9.44;75.86
45369;BME280;51342;55.250;37.668;2023-04-27T03:48:43;98984.59;;;9.69;75.47
45369;BME280;51342;55.250;37.668;2023-04-27T03:51:14;98985.88;;;9.95;75.27
45369;BME280;51342;55.250;37.668;2023-04-27T03:53:48;98987.75;;;10.16;74.97
45369;BME280;51342;55.250;37.668;2023-04-27T03:56:20;98994.97;;;10.41;74.86
45369;BME280;51342;55.250;37.668;2023-04-27T03:58:51;98986.50;;;10.63;74.44
45369;BME280;51342;55.250;37.668;2023-04-27T04:01:25;98986.38;;;10.79;74.26
45369;BME280;51342;55.250;37.668;2023-04-27T04:03:56;98981.94;;;10.96;73.88
45369;BME280;51342;55.250;37.668;2023-04-27T04:06:28;98983.00;;;11.20;72.90
45369;BME280;51342;55.250;37.668;2023-04-27T04:09:00;98983.94;;;11.41;72.48
45369;BME280;51342;55.250;37.668;2023-04-27T04:11:32;98987.44;;;11.63;72.29
45369;BME280;51342;55.250;37.668;2023-04-27T04:14:05;98982.25;;;11.84;71.03
45369;BME280;51342;55.250;37.668;2023-04-27T04:16:37;98986.41;;;12.01;70.52
45369;BME280;51342;55.250;37.668;2023-04-27T04:19:08;98988.69;;;12.14;70.59
45369;BME280;51342;55.250;37.668;2023-04-27T04:21:40;98987.50;;;12.29;69.82
45369;BME280;51342;55.250;37.668;2023-04-27T04:24:12;98987.31;;;12.46;69.38
45369;BME280;51342;55.250;37.668;2023-04-27T04:26:46;98992.19;;;12.60;68.32
45369;BME280;51342;55.250;37.668;2023-04-27T04:29:18;98986.69;;;12.76;67.49
45369;BME280;51342;55.250;37.668;2023-04-27T04:31:50;98992.59;;;12.94;67.30
45369;BME280;51342;55.250;37.668;2023-04-27T04:34:22;98991.53;;;13.13;66.87
45369;BME280;51342;55.250;37.668;2023-04-27T04:36:53;98992.22;;;13.32;66.68
45369;BME280;51342;55.250;37.668;2023-04-27T04:39:30;98994.69;;;13.52;66.39
45369;BME280;51342;55.250;37.668;2023-04-27T04:42:03;98993.56;;;13.71;66.01
45369;BME280;51342;55.250;37.668;2023-04-27T04:44:36;99000.28;;;13.90;65.40
45369;BME280;51342;55.250;37.668;2023-04-27T04:47:09;99003.47;;;14.09;63.98
45369;BME280;51342;55.250;37.668;2023-04-27T04:49:40;99003.91;;;14.22;63.99
45369;BME280;51342;55.250;37.668;2023-04-27T04:52:12;99007.00;;;14.38;63.09
45369;BME280;51342;55.250;37.668;2023-04-27T04:54:43;99005.72;;;14.52;62.64
45369;BME280;51342;55.250;37.668;2023-04-27T04:57:14;99011.34;;;14.66;62.47
45369;BME280;51342;55.250;37.668;2023-04-27T04:59:46;99011.75;;;14.79;62.32
45369;BME280;51342;55.250;37.668;2023-04-27T05:02:17;99012.19;;;14.95;60.56
45369;BME280;51342;55.250;37.668;2023-04-27T05:04:48;99011.63;;;15.05;60.65
45369;BME280;51342;55.250;37.668;2023-04-27T05:07:22;99005.78;;;15.14;60.93
45369;BME280;51342;55.250;37.668;2023-04-27T05:09:53;99008.66;;;15.23;59.49
45369;BME280;51342;55.250;37.668;2023-04-27T05:12:24;99017.66;;;15.34;60.27
45369;BME280;51342;55.250;37.668;2023-04-27T05:14:56;99013.59;;;15.45;59.23
45369;BME280;51342;55.250;37.668;2023-04-27T05:17:27;99024.47;;;15.62;59.54
45369;BME280;51342;55.250;37.668;2023-04-27T05:19:58;99021.34;;;15.74;59.80
45369;BME280;51342;55.250;37.668;2023-04-27T05:22:30;99011.19;;;15.84;59.09
45369;BME280;51342;55.250;37.668;2023-04-27T05:25:02;99016.63;;;15.94;57.30
45369;BME280;51342;55.250;37.668;2023-04-27T05:27:34;99014.06;;;15.95;57.32
45369;BME280;51342;55.250;37.668;2023-04-27T05:30:06;99016.72;;;15.97;56.07
45369;BME280;51342;55.250;37.668;2023-04-27T05:32:37;99019.34;;;15.98;56.69
45369;BME280;51342;55.250;37.668;2023-04-27T05:35:09;99022.03;;;16.01;55.92
45369;BME280;51342;55.250;37.668;2023-04-27T05:37:41;99030.03;;;16.07;56.38
45369;BME280;51342;55.250;37.668;2023-04-27T05:40:14;99028.47;;;16.15;58.23
45369;BME280;51342;55.250;37.668;2023-04-27T05:42:45;99031.28;;;16.23;57.07
45369;BME280;51342;55.250;37.668;2023-04-27T05:45:17;99046.25;;;16.32;56.84
45369;BME280;51342;55.250;37.668;2023-04-27T05:47:48;99035.09;;;16.37;56.43
45369;BME280;51342;55.250;37.668;2023-04-27T05:50:20;99035.06;;;16.36;55.93
45369;BME280;51342;55.250;37.668;2023-04-27T05:52:51;99035.72;;;16.27;55.24
45369;BME280;51342;55.250;37.668;2023-04-27T05:55:22;99030.47;;;16.26;55.60
45369;BME280;51342;55.250;37.668;2023-04-27T05:57:54;99037.56;;;16.31;55.39
45369;BME280;51342;55.250;37.668;2023-04-27T06:00:26;99026.47;;;16.40;54.92
45369;BME280;51342;55.250;37.668;2023-04-27T06:02:58;99029.25;;;16.49;56.49
45369;BME280;51342;55.250;37.668;2023-04-27T06:05:29;99034.56;;;16.52;55.89
45369;BME280;51342;55.250;37.668;2023-04-27T06:08:00;99034.56;;;16.52;54.31
45369;BME280;51342;55.250;37.668;2023-04-27T06:10:32;99040.84;;;16.60;54.31
45369;BME280;51342;55.250;37.668;2023-04-27T06:13:03;99037.47;;;16.66;54.27
45369;BME280;51342;55.250;37.668;2023-04-27T06:15:35;99032.56;;;16.78;54.53
45369;BME280;51342;55.250;37.668;2023-04-27T06:18:06;99037.91;;;16.84;53.10
45369;BME280;51342;55.250;37.668;2023-04-27T06:20:38;99036.25;;;16.86;53.10
45369;BME280;51342;55.250;37.668;2023-04-27T06:23:09;99030.81;;;16.79;51.86
45369;BME280;51342;55.250;37.668;2023-04-27T06:25:41;99035.09;;;16.74;52.68
45369;BME280;51342;55.250;37.668;2023-04-27T06:28:12;99038.50;;;16.71;52.80
45369;BME280;51342;55.250;37.668;2023-04-27T06:30:43;99038.44;;;16.69;54.41
45369;BME280;51342;55.250;37.668;2023-04-27T06:33:15;99039.19;;;16.64;53.94
45369;BME280;51342;55.250;37.668;2023-04-27T06:35:46;99040.84;;;16.60;53.59
45369;BME280;51342;55.250;37.668;2023-04-27T06:38:17;99046.91;;;16.59;54.38
45369;BME280;51342;55.250;37.668;2023-04-27T06:40:50;99042.72;;;16.67;54.03
45369;BME280;51342;55.250;37.668;2023-04-27T06:43:34;99049.19;;;16.82;54.23
45369;BME280;51342;55.250;37.668;2023-04-27T06:46:05;99043.47;;;17.00;54.06
45369;BME280;51342;55.250;37.668;2023-04-27T06:48:37;99043.81;;;17.16;52.62
45369;BME280;51342;55.250;37.668;2023-04-27T06:51:08;99033.66;;;17.30;52.51
45369;BME280;51342;55.250;37.668;2023-04-27T06:53:40;99034.78;;;17.43;51.50
45369;BME280;51342;55.250;37.668;2023-04-27T06:56:23;99039.16;;;17.45;51.83
45369;BME280;51342;55.250;37.668;2023-04-27T06:58:55;99027.78;;;17.42;51.28
45369;BME280;51342;55.250;37.668;2023-04-27T07:01:26;99040.88;;;17.43;51.62
45369;BME280;51342;55.250;37.668;2023-04-27T07:03:58;99044.47;;;17.48;52.04
45369;BME280;51342;55.250;37.668;2023-04-27T07:06:29;99043.59;;;17.48;50.76
45369;BME280;51342;55.250;37.668;2023-04-27T07:09:01;99042.72;;;17.47;50.83
45369;BME280;51342;55.250;37.668;2023-04-27T07:11:35;99040.97;;;17.48;50.56
45369;BME280;51342;55.250;37.668;2023-04-27T07:14:07;99048.00;;;17.51;51.15
45369;BME280;51342;55.250;37.668;2023-04-27T07:16:50;99050.69;;;17.54;51.60
45369;BME280;51342;55.250;37.668;2023-04-27T07:19:35;99047.41;;;17.65;51.25
45369;BME280;51342;55.250;37.668;2023-04-27T07:22:07;99054.56;;;17.74;51.22
45369;BME280;51342;55.250;37.668;2023-04-27T07:24:38;99055.72;;;17.88;51.65
45369;BME280;51342;55.250;37.668;2023-04-27T07:27:09;99049.78;;;17.98;50.75
45369;BME280;51342;55.250;37.668;2023-04-27T07:29:41;99055.06;;;18.03;49.85
45369;BME280;51342;55.250;37.668;2023-04-27T07:32:13;99058.66;;;18.08;50.12
45369;BME280;51342;55.250;37.668;2023-04-27T07:34:45;99059.69;;;18.18;49.99
45369;BME280;51342;55.250;37.668;2023-04-27T07:37:35;99058.06;;;18.26;49.54
45369;BME280;51342;55.250;37.668;2023-04-27T07:40:11;99056.59;;;18.43;50.22
45369;BME280;51342;55.250;37.668;2023-04-27T07:42:46;99051.56;;;18.56;48.45
45369;BME280;51342;55.250;37.668;2023-04-27T07:45:18;99046.44;;;18.65;47.74
45369;BME280;51342;55.250;37.668;2023-04-27T07:47:49;99050.13;;;18.73;47.73
45369;BME280;51342;55.250;37.668;2023-04-27T07:50:20;99040.44;;;18.70;46.77
45369;BME280;51342;55.250;37.668;2023-04-27T07:52:55;99050.06;;;18.70;46.40
45369;BME280;51342;55.250;37.668;2023-04-27T07:55:26;99053.63;;;18.73;47.04
45369;BME280;51342;55.250;37.668;2023-04-27T07:57:58;99051.22;;;18.90;47.13
45369;BME280;51342;55.250;37.668;2023-04-27T08:00:42;99045.28;;;19.05;46.97
45369;BME280;51342;55.250;37.668;2023-04-27T08:03:13;99056.91;;;19.24;46.72
45369;BME280;51342;55.250;37.668;2023-04-27T08:05:45;99050.06;;;19.37;46.87
45369;BME280;51342;55.250;37.668;2023-04-27T08:08:28;99052.81;;;19.47;44.06
45369;BME280;51342;55.250;37.668;2023-04-27T08:10:59;99045.00;;;19.55;43.00
45369;BME280;51342;55.250;37.668;2023-04-27T08:13:32;99052.13;;;19.62;44.11
45369;BME280;51342;55.250;37.668;2023-04-27T08:16:04;99037.34;;;19.72;44.70
45369;BME280;51342;55.250;37.668;2023-04-27T08:18:50;99041.81;;;19.80;43.77
45369;BME280;51342;55.250;37.668;2023-04-27T08:21:22;99048.00;;;19.87;45.17
45369;BME280;51342;55.250;37.668;2023-04-27T08:23:53;99041.94;;;19.96;44.93
45369;BME280;51342;55.250;37.668;2023-04-27T08:26:24;99042.03;;;20.05;45.58
45369;BME280;51342;55.250;37.668;2023-04-27T08:28:56;99055.22;;;20.11;44.76
45369;BME280;51342;55.250;37.668;2023-04-27T08:31:27;99052.50;;;20.00;45.26
45369;BME280;51342;55.250;37.668;2023-04-27T08:33:59;99056.75;;;19.86;44.81
45369;BME280;51342;55.250;37.668;2023-04-27T08:36:30;99056.66;;;19.75;42.96
45369;BME280;51342;55.250;37.668;2023-04-27T08:39:14;99059.00;;;19.54;43.64
45369;BME280;51342;55.250;37.668;2023-04-27T08:41:46;99062.44;;;19.47;44.31
45369;BME280;51342;55.250;37.668;2023-04-27T08:44:17;99069.38;;;19.43;42.46
45369;BME280;51342;55.250;37.668;2023-04-27T08:46:49;99070.25;;;19.42;45.67
45369;BME280;51342;55.250;37.668;2023-04-27T08:49:21;99071.16;;;19.46;46.65
45369;BME280;51342;55.250;37.668;2023-04-27T08:52:10;99063.38;;;19.56;45.62
45369;BME280;51342;55.250;37.668;2023-04-27T08:54:42;99056.59;;;19.74;45.72
45369;BME280;51342;55.250;37.668;2023-04-27T08:57:14;99062.03;;;19.91;42.85
45369;BME280;51342;55.250;37.668;2023-04-27T08:59:56;99062.03;;;19.89;44.19
45369;BME280;51342;55.250;37.668;2023-04-27T09:02:29;99061.19;;;19.92;44.09
45369;BME280;51342;55.250;37.668;2023-04-27T09:05:01;99055.94;;;19.95;43.16
45369;BME280;51342;55.250;37.668;2023-04-27T09:07:33;99059.44;;;19.95;42.49
45369;BME280;51342;55.250;37.668;2023-04-27T09:10:04;99050.75;;;20.01;43.32
45369;BME280;51342;55.250;37.668;2023-04-27T09:12:36;99060.53;;;20.14;43.82
45369;BME280;51342;55.250;37.668;2023-04-27T09:15:08;99059.69;;;20.21;44.35
45369;BME280;51342;55.250;37.668;2023-04-27T09:17:39;99059.69;;;20.23;46.34
45369;BME280;51342;55.250;37.668;2023-04-27T09:20:10;99059.69;;;20.20;43.75
45369;BME280;51342;55.250;37.668;2023-04-27T09:22:46;99056.06;;;20.05;41.72
45369;BME280;51342;55.250;37.668;2023-04-27T09:25:28;99061.25;;;20.02;44.20
45369;BME280;51342;55.250;37.668;2023-04-27T09:28:00;99056.94;;;20.07;45.10
45369;BME280;51342;55.250;37.668;2023-04-27T09:30:31;99063.09;;;20.12;45.27
45369;BME280;51342;55.250;37.668;2023-04-27T09:33:03;99058.72;;;20.08;42.56
45369;BME280;51342;55.250;37.668;2023-04-27T09:35:34;99065.66;;;20.03;44.17
45369;BME280;51342;55.250;37.668;2023-04-27T09:38:05;99067.44;;;20.06;46.06
45369;BME280;51342;55.250;37.668;2023-04-27T09:40:37;99069.22;;;20.08;45.42
45369;BME280;51342;55.250;37.668;2023-04-27T09:43:10;99068.31;;;20.08;45.41
45369;BME280;51342;55.250;37.668;2023-04-27T09:45:42;99071.88;;;20.13;45.20
45369;BME280;51342;55.250;37.668;2023-04-27T09:48:14;99073.66;;;20.14;45.86
45369;BME280;51342;55.250;37.668;2023-04-27T09:50:45;99071.81;;;20.07;45.63
45369;BME280;51342;55.250;37.668;2023-04-27T09:53:24;99064.66;;;19.91;45.53
45369;BME280;51342;55.250;37.668;2023-04-27T09:56:19;99069.78;;;19.77;45.71
45369;BME280;51342;55.250;37.668;2023-04-27T10:01:48;99091.16;;;19.39;45.49
45369;BME280;51342;55.250;37.668;2023-04-27T10:07:08;99111.72;;;19.05;47.22
45369;BME280;51342;55.250;37.668;2023-04-27T10:09:47;99106.09;;;18.78;48.00
45369;BME280;51342;55.250;37.668;2023-04-27T10:12:21;99124.06;;;18.55;47.12
45369;BME280;51342;55.250;37.668;2023-04-27T10:14:55;99121.16;;;18.38;48.61
45369;BME280;51342;55.250;37.668;2023-04-27T10:17:30;99125.22;;;18.21;49.74
45369;BME280;51342;55.250;37.668;2023-04-27T10:20:04;99132.00;;;18.10;49.92
45369;BME280;51342;55.250;37.668;2023-04-27T10:22:47;99126.50;;;17.97;49.32
45369;BME280;51342;55.250;37.668;2023-04-27T10:25:26;99126.38;;;17.88;49.19
45369;BME280;51342;55.250;37.668;2023-04-27T10:28:00;99132.47;;;17.87;50.90
45369;BME280;51342;55.250;37.668;2023-04-27T10:30:37;99132.50;;;17.90;51.13
45369;BME280;51342;55.250;37.668;2023-04-27T10:33:09;99132.50;;;17.92;50.61
45369;BME280;51342;55.250;37.668;2023-04-27T10:35:44;99131.63;;;17.91;50.59
45369;BME280;51342;55.250;37.668;2023-04-27T10:38:17;99129.03;;;17.91;48.34
45369;BME280;51342;55.250;37.668;2023-04-27T10:41:01;99123.63;;;17.82;50.80
45369;BME280;51342;55.250;37.668;2023-04-27T10:43:34;99122.03;;;17.90;49.29
45369;BME280;51342;55.250;37.668;2023-04-27T10:46:12;99120.44;;;17.98;49.42
45369;BME280;51342;55.250;37.668;2023-04-27T10:48:44;99112.13;;;18.21;50.23
45369;BME280;51342;55.250;37.668;2023-04-27T10:51:16;99113.41;;;18.46;48.99
45369;BME280;51342;55.250;37.668;2023-04-27T10:53:51;99106.81;;;18.68;47.36
45369;BME280;51342;55.250;37.668;2023-04-27T10:56:23;99105.16;;;18.76;45.35
45369;BME280;51342;55.250;37.668;2023-04-27T10:59:07;99100.09;;;18.88;45.79
45369;BME280;51342;55.250;37.668;2023-04-27T11:01:39;99098.56;;;19.01;45.25
45369;BME280;51342;55.250;37.668;2023-04-27T11:04:37;99086.34;;;19.04;44.08
45369;BME280;51342;55.250;37.668;2023-04-27T11:07:09;99096.81;;;19.01;43.07
45369;BME280;51342;55.250;37.668;2023-04-27T11:09:41;99087.28;;;19.06;42.50
45369;BME280;51342;55.250;37.668;2023-04-27T11:12:13;99097.06;;;19.21;42.17
45369;BME280;51342;55.250;37.668;2023-04-27T11:14:45;99094.56;;;19.29;42.54
45369;BME280;51342;55.250;37.668;2023-04-27T11:17:27;99085.03;;;19.37;41.36
45369;BME280;51342;55.250;37.668;2023-04-27T11:19:59;99078.03;;;19.38;40.67
45369;BME280;51342;55.250;37.668;2023-04-27T11:22:30;99084.25;;;19.44;41.44
45369;BME280;51342;55.250;37.668;2023-04-27T11:25:14;99079.88;;;19.43;41.30
45369;BME280;51342;55.250;37.668;2023-04-27T11:27:46;99084.28;;;19.47;41.72
45369;BME280;51342;55.250;37.668;2023-04-27T11:30:19;99073.81;;;19.47;40.03
45369;BME280;51342;55.250;37.668;2023-04-27T11:33:07;99071.97;;;19.40;39.93
45369;BME280;51342;55.250;37.668;2023-04-27T11:35:38;99072.00;;;19.43;39.49
45369;BME280;51342;55.250;37.668;2023-04-27T11:38:17;99065.06;;;19.47;40.31
45369;BME280;51342;55.250;37.668;2023-04-27T11:41:03;99062.50;;;19.53;41.31
45369;BME280;51342;55.250;37.668;2023-04-27T11:43:39;99057.34;;;19.61;40.85
45369;BME280;51342;55.250;37.668;2023-04-27T11:46:11;99054.84;;;19.70;40.78
45369;BME280;51342;55.250;37.668;2023-04-27T11:48:43;99059.28;;;19.78;41.48
45369;BME280;51342;55.250;37.668;2023-04-27T11:51:14;99043.59;;;19.83;39.62
45369;BME280;51342;55.250;37.668;2023-04-27T11:53:46;99048.84;;;19.84;38.44
45369;BME280;51342;55.250;37.668;2023-04-27T11:56:18;99040.94;;;19.80;39.58
45369;BME280;51342;55.250;37.668;2023-04-27T11:59:02;99040.06;;;19.81;40.39
45369;BME280;51342;55.250;37.668;2023-04-27T12:01:34;99039.22;;;19.83;42.38
45369;BME280;51342;55.250;37.668;2023-04-27T12:04:05;99038.41;;;19.89;41.37
45369;BME280;51342;55.250;37.668;2023-04-27T12:06:37;99042.78;;;19.90;40.36
45369;BME280;51342;55.250;37.668;2023-04-27T12:09:08;99032.22;;;19.84;40.05
45369;BME280;51342;55.250;37.668;2023-04-27T12:11:40;99029.47;;;19.73;39.49
45369;BME280;51342;55.250;37.668;2023-04-27T12:14:11;99029.44;;;19.67;40.89
45369;BME280;51342;55.250;37.668;2023-04-27T12:16:43;99023.28;;;19.64;40.25
45369;BME280;51342;55.250;37.668;2023-04-27T12:19:14;99031.06;;;19.57;41.13
45369;BME280;51342;55.250;37.668;2023-04-27T12:21:45;99035.38;;;19.54;42.45
45369;BME280;51342;55.250;37.668;2023-04-27T12:24:17;99032.72;;;19.49;40.86
45369;BME280;51342;55.250;37.668;2023-04-27T12:26:49;99028.28;;;19.44;40.16
45369;BME280;51342;55.250;37.668;2023-04-27T12:29:21;99030.91;;;19.45;40.86
45369;BME280;51342;55.250;37.668;2023-04-27T12:31:53;99024.84;;;19.49;40.21
45369;BME280;51342;55.250;37.668;2023-04-27T12:34:25;99024.91;;;19.55;38.63
45369;BME280;51342;55.250;37.668;2023-04-27T12:36:56;99029.28;;;19.56;39.28
45369;BME280;51342;55.250;37.668;2023-04-27T12:39:27;99023.25;;;19.62;40.40
45369;BME280;51342;55.250;37.668;2023-04-27T12:41:59;99027.72;;;19.71;40.16
45369;BME280;51342;55.250;37.668;2023-04-27T12:44:30;99014.66;;;19.77;38.33
45369;BME280;51342;55.250;37.668;2023-04-27T12:47:02;99025.06;;;19.68;39.58
45369;BME280;51342;55.250;37.668;2023-04-27T12:49:46;99034.63;;;19.61;40.38
45369;BME280;51342;55.250;37.668;2023-04-27T12:52:17;99027.66;;;19.65;41.48
45369;BME280;51342;55.250;37.668;2023-04-27T12:54:49;99025.94;;;19.67;42.00
45369;BME280;51342;55.250;37.668;2023-04-27T12:57:27;99024.16;;;19.64;41.89
45369;BME280;51342;55.250;37.668;2023-04-27T12:59:58;99029.34;;;19.59;41.68
45369;BME280;51342;55.250;37.668;2023-04-27T13:02:30;99037.13;;;19.53;42.78
45369;BME280;51342;55.250;37.668;2023-04-27T13:05:02;99016.03;;;19.41;39.92
45369;BME280;51342;55.250;37.668;2023-04-27T13:07:37;99025.53;;;19.33;39.45
45369;BME280;51342;55.250;37.668;2023-04-27T13:10:09;99020.25;;;19.30;39.06
45369;BME280;51342;55.250;37.668;2023-04-27T13:12:42;99021.06;;;19.24;38.80
45369;BME280;51342;55.250;37.668;2023-04-27T13:15:13;99021.03;;;19.21;39.69
45369;BME280;51342;55.250;37.668;2023-04-27T13:20:36;99016.53;;;19.11;39.17
45369;BME280;51342;55.250;37.668;2023-04-27T13:23:08;99013.06;;;19.14;39.45
45369;BME280;51342;55.250;37.668;2023-04-27T13:25:39;99017.47;;;19.16;38.79
45369;BME280;51342;55.250;37.668;2023-04-27T13:28:11;99013.97;;;19.16;38.63
45369;BME280;51342;55.250;37.668;2023-04-27T13:30:42;99007.84;;;19.17;40.69
45369;BME280;51342;55.250;37.668;2023-04-27T13:33:14;99020.16;;;19.22;41.77
45369;BME280;51342;55.250;37.668;2023-04-27T13:35:45;99011.41;;;19.20;40.22